sensor_id;sensor_type;location;lat;lon;timestamp;pressure;altitude;pressure_sealevel;temperature
61977;BMP280;45905;50.570;10.428;2023-03-20T00:02:09;97976.34;;;10.63
61977;BMP280;45905;50.570;10.428;2023-03-20T00:04:37;97977.63;;;10.59
61977;BMP280;45905;50.570;10.428;2023-03-20T00:07:04;97981.56;;;10.61
61977;BMP280;45905;50.570;10.428;2023-03-20T00:09:36;97984.25;;;10.60
61977;BMP280;45905;50.570;10.428;2023-03-20T00:12:04;97978.38;;;10.59
61977;BMP280;45905;50.570;10.428;2023-03-20T00:14:33;97976.84;;;10.58
61977;BMP280;45905;50.570;10.428;2023-03-20T00:17:00;97969.22;;;10.58
61977;BMP280;45905;50.570;10.428;2023-03-20T00:19:28;97967.66;;;10.57
61977;BMP280;45905;50.570;10.428;2023-03-20T00:21:57;97973.66;;;10.56
61977;BMP280;45905;50.570;10.428;2023-03-20T00:24:24;97977.13;;;10.55
61977;BMP280;45905;50.570;10.428;2023-03-20T00:26:52;97981.53;;;10.53
61977;BMP280;45905;50.570;10.428;2023-03-20T00:29:27;97978.38;;;10.51
61977;BMP280;45905;50.570;10.428;2023-03-20T00:31:57;97971.09;;;10.48
61977;BMP280;45905;50.570;10.428;2023-03-20T00:34:27;97975.50;;;10.47
61977;BMP280;45905;50.570;10.428;2023-03-20T00:36:58;97985.28;;;10.42
61977;BMP280;45905;50.570;10.428;2023-03-20T00:39:28;97983.88;;;10.39
61977;BMP280;45905;50.570;10.428;2023-03-20T00:42:06;97988.16;;;10.39
61977;BMP280;45905;50.570;10.428;2023-03-20T00:44:42;97990.69;;;10.39
61977;BMP280;45905;50.570;10.428;2023-03-20T00:47:17;97992.56;;;10.37
61977;BMP280;45905;50.570;10.428;2023-03-20T00:49:48;97985.75;;;10.37
61977;BMP280;45905;50.570;10.428;2023-03-20T00:52:20;97997.91;;;10.34
61977;BMP280;45905;50.570;10.428;2023-03-20T00:54:50;97998.25;;;10.31
61977;BMP280;45905;50.570;10.428;2023-03-20T00:57:24;97990.78;;;10.29
61977;BMP280;45905;50.570;10.428;2023-03-20T01:00:07;97992.66;;;10.28
61977;BMP280;45905;50.570;10.428;2023-03-20T01:02:35;98008.94;;;10.25
61977;BMP280;45905;50.570;10.428;2023-03-20T01:05:02;98004.69;;;10.26
61977;BMP280;45905;50.570;10.428;2023-03-20T01:07:31;98007.69;;;10.21
61977;BMP280;45905;50.570;10.428;2023-03-20T01:09:58;97998.13;;;10.15
61977;BMP280;45905;50.570;10.428;2023-03-20T01:12:26;98003.84;;;10.17
61977;BMP280;45905;50.570;10.428;2023-03-20T01:14:56;98001.97;;;10.19
61977;BMP280;45905;50.570;10.428;2023-03-20T01:17:27;98001.81;;;10.21
61977;BMP280;45905;50.570;10.428;2023-03-20T01:19:55;98009.28;;;10.22
61977;BMP280;45905;50.570;10.428;2023-03-20T01:22:23;98014.34;;;10.22
61977;BMP280;45905;50.570;10.428;2023-03-20T01:24:50;98010.06;;;10.23
61977;BMP280;45905;50.570;10.428;2023-03-20T01:27:18;98012.41;;;10.24
61977;BMP280;45905;50.570;10.428;2023-03-20T01:29:46;98019.41;;;10.22
61977;BMP280;45905;50.570;10.428;2023-03-20T01:32:18;98015.94;;;10.23
61977;BMP280;45905;50.570;10.428;2023-03-20T01:34:48;98011.00;;;10.22
61977;BMP280;45905;50.570;10.428;2023-03-20T01:37:26;98015.13;;;10.23
61977;BMP280;45905;50.570;10.428;2023-03-20T01:39:57;98022.06;;;10.21
61977;BMP280;45905;50.570;10.428;2023-03-20T01:42:25;98015.41;;;10.20
61977;BMP280;45905;50.570;10.428;2023-03-20T01:44:52;98026.34;;;10.20
61977;BMP280;45905;50.570;10.428;2023-03-20T01:47:23;98031.69;;;10.17
61977;BMP280;45905;50.570;10.428;2023-03-20T01:50:23;98037.34;;;10.11
61977;BMP280;45905;50.570;10.428;2023-03-20T01:53:22;98035.75;;;10.10
61977;BMP280;45905;50.570;10.428;2023-03-20T01:55:58;98034.19;;;10.10
61977;BMP280;45905;50.570;10.428;2023-03-20T01:58:40;98034.97;;;10.10
61977;BMP280;45905;50.570;10.428;2023-03-20T02:01:12;98036.56;;;10.11
61977;BMP280;45905;50.570;10.428;2023-03-20T02:03:47;98026.44;;;10.11
61977;BMP280;45905;50.570;10.428;2023-03-20T02:06:22;98033.88;;;10.12
61977;BMP280;45905;50.570;10.428;2023-03-20T02:09:05;98028.31;;;10.09
61977;BMP280;45905;50.570;10.428;2023-03-20T02:11:40;98034.19;;;10.10
61977;BMP280;45905;50.570;10.428;2023-03-20T02:14:09;98024.06;;;10.10
61977;BMP280;45905;50.570;10.428;2023-03-20T02:16:49;98030.84;;;10.09
61977;BMP280;45905;50.570;10.428;2023-03-20T02:19:38;98013.94;;;10.10
61977;BMP280;45905;50.570;10.428;2023-03-20T02:25:31;98013.00;;;10.10
61977;BMP280;45905;50.570;10.428;2023-03-20T02:28:46;98019.78;;;10.10
61977;BMP280;45905;50.570;10.428;2023-03-20T02:31:47;98025.00;;;10.09
61977;BMP280;45905;50.570;10.428;2023-03-20T02:41:49;98016.09;;;9.97
61977;BMP280;45905;50.570;10.428;2023-03-20T02:44:42;98021.94;;;9.97
61977;BMP280;45905;50.570;10.428;2023-03-20T02:47:26;98021.94;;;9.97
61977;BMP280;45905;50.570;10.428;2023-03-20T02:59:00;98024.94;;;10.01
61977;BMP280;45905;50.570;10.428;2023-03-20T03:01:40;98028.41;;;10.00
61977;BMP280;45905;50.570;10.428;2023-03-20T03:04:19;98022.88;;;9.96
61977;BMP280;45905;50.570;10.428;2023-03-20T03:06:50;98028.38;;;9.92
61977;BMP280;45905;50.570;10.428;2023-03-20T03:09:34;98030.25;;;9.90
61977;BMP280;45905;50.570;10.428;2023-03-20T03:12:11;98022.50;;;9.91
61977;BMP280;45905;50.570;10.428;2023-03-20T03:15:31;98023.97;;;9.94
61977;BMP280;45905;50.570;10.428;2023-03-20T03:18:02;98020.34;;;9.96
61977;BMP280;45905;50.570;10.428;2023-03-20T03:20:36;98022.88;;;9.96
61977;BMP280;45905;50.570;10.428;2023-03-20T03:23:05;98018.59;;;9.97
61977;BMP280;45905;50.570;10.428;2023-03-20T03:25:38;98020.19;;;9.98
61977;BMP280;45905;50.570;10.428;2023-03-20T03:28:30;98019.41;;;9.97
61977;BMP280;45905;50.570;10.428;2023-03-20T03:31:06;98017.03;;;9.96
61977;BMP280;45905;50.570;10.428;2023-03-20T03:33:39;98012.91;;;9.95
61977;BMP280;45905;50.570;10.428;2023-03-20T03:45:50;98018.59;;;9.97
61977;BMP280;45905;50.570;10.428;2023-03-20T03:48:25;98028.06;;;9.95
61977;BMP280;45905;50.570;10.428;2023-03-20T03:50:59;98032.50;;;9.93
61977;BMP280;45905;50.570;10.428;2023-03-20T03:53:43;98029.91;;;9.85
61977;BMP280;45905;50.570;10.428;2023-03-20T03:56:19;98034.63;;;9.80
61977;BMP280;45905;50.570;10.428;2023-03-20T03:58:54;98033.66;;;9.81
61977;BMP280;45905;50.570;10.428;2023-03-20T04:01:26;98041.91;;;9.83
61977;BMP280;45905;50.570;10.428;2023-03-20T04:03:59;98040.03;;;9.85
61977;BMP280;45905;50.570;10.428;2023-03-20T04:06:27;98039.22;;;9.85
61977;BMP280;45905;50.570;10.428;2023-03-20T04:08:55;98041.91;;;9.83
61977;BMP280;45905;50.570;10.428;2023-03-20T04:11:24;98046.16;;;9.83
61977;BMP280;45905;50.570;10.428;2023-03-20T04:13:52;98051.09;;;9.84
61977;BMP280;45905;50.570;10.428;2023-03-20T04:16:22;98057.88;;;9.84
61977;BMP280;45905;50.570;10.428;2023-03-20T04:18:50;98050.94;;;9.86
61977;BMP280;45905;50.570;10.428;2023-03-20T04:21:18;98051.75;;;9.86
61977;BMP280;45905;50.570;10.428;2023-03-20T04:23:45;98053.34;;;9.87
61977;BMP280;45905;50.570;10.428;2023-03-20T04:26:13;98055.06;;;9.87
61977;BMP280;45905;50.570;10.428;2023-03-20T04:28:40;98053.34;;;9.87
61977;BMP280;45905;50.570;10.428;2023-03-20T04:31:35;98054.25;;;9.86
61977;BMP280;45905;50.570;10.428;2023-03-20T04:34:12;98055.06;;;9.87
61977;BMP280;45905;50.570;10.428;2023-03-20T04:36:43;98053.63;;;9.84
61977;BMP280;45905;50.570;10.428;2023-03-20T04:39:12;98054.56;;;9.83
61977;BMP280;45905;50.570;10.428;2023-03-20T04:41:39;98041.91;;;9.83
61977;BMP280;45905;50.570;10.428;2023-03-20T04:44:07;98048.84;;;9.81
61977;BMP280;45905;50.570;10.428;2023-03-20T04:46:35;98054.88;;;9.80
61977;BMP280;45905;50.570;10.428;2023-03-20T04:49:06;98050.19;;;9.76
61977;BMP280;45905;50.570;10.428;2023-03-20T04:51:33;98045.59;;;9.72
61977;BMP280;45905;50.570;10.428;2023-03-20T04:54:01;98042.28;;;9.71
61977;BMP280;45905;50.570;10.428;2023-03-20T04:56:28;98055.06;;;9.70
61977;BMP280;45905;50.570;10.428;2023-03-20T04:59:08;98049.00;;;9.63
61977;BMP280;45905;50.570;10.428;2023-03-20T05:01:36;98051.53;;;9.63
61977;BMP280;45905;50.570;10.428;2023-03-20T05:04:03;98053.75;;;9.66
61977;BMP280;45905;50.570;10.428;2023-03-20T05:06:32;98056.13;;;9.67
61977;BMP280;45905;50.570;10.428;2023-03-20T05:09:00;98062.78;;;9.68
61977;BMP280;45905;50.570;10.428;2023-03-20T05:11:29;98068.78;;;9.67
61977;BMP280;45905;50.570;10.428;2023-03-20T05:14:35;98071.97;;;9.69
61977;BMP280;45905;50.570;10.428;2023-03-20T05:17:34;98076.38;;;9.67
61977;BMP280;45905;50.570;10.428;2023-03-20T05:20:27;98077.44;;;9.65
61977;BMP280;45905;50.570;10.428;2023-03-20T05:23:11;98089.16;;;9.66
61977;BMP280;45905;50.570;10.428;2023-03-20T05:25:59;98078.09;;;9.67
61977;BMP280;45905;50.570;10.428;2023-03-20T05:28:45;98073.97;;;9.66
61977;BMP280;45905;50.570;10.428;2023-03-20T05:31:26;98064.19;;;9.63
61977;BMP280;45905;50.570;10.428;2023-03-20T05:34:22;98072.69;;;9.62
61977;BMP280;45905;50.570;10.428;2023-03-20T05:37:03;98075.22;;;9.62
61977;BMP280;45905;50.570;10.428;2023-03-20T05:39:53;98080.28;;;9.62
61977;BMP280;45905;50.570;10.428;2023-03-20T05:42:50;98078.56;;;9.62
61977;BMP280;45905;50.570;10.428;2023-03-20T05:45:29;98079.34;;;9.63
61977;BMP280;45905;50.570;10.428;2023-03-20T05:48:02;98080.13;;;9.63
61977;BMP280;45905;50.570;10.428;2023-03-20T05:50:53;98076.44;;;9.58
61977;BMP280;45905;50.570;10.428;2023-03-20T05:53:46;98077.03;;;9.52
61977;BMP280;45905;50.570;10.428;2023-03-20T05:56:36;98077.59;;;9.46
61977;BMP280;45905;50.570;10.428;2023-03-20T05:59:22;98078.56;;;9.45
61977;BMP280;45905;50.570;10.428;2023-03-20T06:02:16;98072.25;;;9.49
61977;BMP280;45905;50.570;10.428;2023-03-20T06:04:53;98072.78;;;9.52
61977;BMP280;45905;50.570;10.428;2023-03-20T06:07:26;98069.31;;;9.53
61977;BMP280;45905;50.570;10.428;2023-03-20T06:10:04;98072.31;;;9.57
61977;BMP280;45905;50.570;10.428;2023-03-20T06:12:32;98074.84;;;9.57
61977;BMP280;45905;50.570;10.428;2023-03-20T06:14:59;98078.31;;;9.56
61977;BMP280;45905;50.570;10.428;2023-03-20T06:17:30;98077.50;;;9.55
61977;BMP280;45905;50.570;10.428;2023-03-20T06:20:01;98080.22;;;9.54
61977;BMP280;45905;50.570;10.428;2023-03-20T06:22:29;98078.31;;;9.56
61977;BMP280;45905;50.570;10.428;2023-03-20T06:24:56;98089.09;;;9.58
61977;BMP280;45905;50.570;10.428;2023-03-20T06:27:30;98079.50;;;9.61
61977;BMP280;45905;50.570;10.428;2023-03-20T06:29:58;98085.81;;;9.65
61977;BMP280;45905;50.570;10.428;2023-03-20T06:32:30;98077.16;;;9.68
61977;BMP280;45905;50.570;10.428;2023-03-20T06:35:00;98079.56;;;9.69
61977;BMP280;45905;50.570;10.428;2023-03-20T06:37:28;98071.03;;;9.70
61977;BMP280;45905;50.570;10.428;2023-03-20T06:40:07;98070.88;;;9.72
61977;BMP280;45905;50.570;10.428;2023-03-20T06:42:36;98074.84;;;9.74
61977;BMP280;45905;50.570;10.428;2023-03-20T06:45:06;98072.81;;;9.77
61977;BMP280;45905;50.570;10.428;2023-03-20T06:47:50;98081.91;;;9.80
61977;BMP280;45905;50.570;10.428;2023-03-20T06:50:17;98083.31;;;9.82
61977;BMP280;45905;50.570;10.428;2023-03-20T06:52:45;98078.91;;;9.84
61977;BMP280;45905;50.570;10.428;2023-03-20T06:55:31;98076.75;;;9.89
61977;BMP280;45905;50.570;10.428;2023-03-20T06:57:59;98078.03;;;9.93
61977;BMP280;45905;50.570;10.428;2023-03-20T07:00:27;98080.13;;;9.97
61977;BMP280;45905;50.570;10.428;2023-03-20T07:02:56;98089.66;;;10.03
61977;BMP280;45905;50.570;10.428;2023-03-20T07:05:27;98090.00;;;10.08
61977;BMP280;45905;50.570;10.428;2023-03-20T07:07:55;98094.31;;;10.15
61977;BMP280;45905;50.570;10.428;2023-03-20T07:10:23;98090.56;;;10.19
61977;BMP280;45905;50.570;10.428;2023-03-20T07:12:52;98089.97;;;10.25
61977;BMP280;45905;50.570;10.428;2023-03-20T07:15:19;98094.44;;;10.31
61977;BMP280;45905;50.570;10.428;2023-03-20T07:17:48;98094.94;;;10.34
61977;BMP280;45905;50.570;10.428;2023-03-20T07:20:15;98101.16;;;10.40
61977;BMP280;45905;50.570;10.428;2023-03-20T07:22:43;98102.44;;;10.44
61977;BMP280;45905;50.570;10.428;2023-03-20T07:25:30;98106.91;;;10.49
61977;BMP280;45905;50.570;10.428;2023-03-20T07:28:11;98102.31;;;10.53
61977;BMP280;45905;50.570;10.428;2023-03-20T07:30:42;98097.75;;;10.56
61977;BMP280;45905;50.570;10.428;2023-03-20T07:33:10;98092.22;;;10.61
61977;BMP280;45905;50.570;10.428;2023-03-20T07:35:38;98097.00;;;10.64
61977;BMP280;45905;50.570;10.428;2023-03-20T07:38:06;98099.06;;;10.68
61977;BMP280;45905;50.570;10.428;2023-03-20T07:40:41;98100.38;;;10.72
61977;BMP280;45905;50.570;10.428;2023-03-20T07:43:11;98098.50;;;10.74
61977;BMP280;45905;50.570;10.428;2023-03-20T07:45:56;98099.94;;;10.76
61977;BMP280;45905;50.570;10.428;2023-03-20T07:48:23;98109.28;;;10.76
61977;BMP280;45905;50.570;10.428;2023-03-20T07:50:51;98109.28;;;10.76
61977;BMP280;45905;50.570;10.428;2023-03-20T07:53:18;98131.09;;;10.77
61977;BMP280;45905;50.570;10.428;2023-03-20T07:55:47;98117.50;;;10.78
61977;BMP280;45905;50.570;10.428;2023-03-20T07:58:14;98124.81;;;10.81
61977;BMP280;45905;50.570;10.428;2023-03-20T08:00:42;98120.53;;;10.81
61977;BMP280;45905;50.570;10.428;2023-03-20T08:03:09;98133.50;;;10.78
61977;BMP280;45905;50.570;10.428;2023-03-20T08:05:37;98131.09;;;10.77
61977;BMP280;45905;50.570;10.428;2023-03-20T08:08:05;98137.59;;;10.71
61977;BMP280;45905;50.570;10.428;2023-03-20T08:10:32;98136.13;;;10.69
61977;BMP280;45905;50.570;10.428;2023-03-20T08:12:59;98142.13;;;10.68
61977;BMP280;45905;50.570;10.428;2023-03-20T08:15:26;98140.56;;;10.67
61977;BMP280;45905;50.570;10.428;2023-03-20T08:17:53;98137.06;;;10.68
61977;BMP280;45905;50.570;10.428;2023-03-20T08:20:21;98134.53;;;10.68
61977;BMP280;45905;50.570;10.428;2023-03-20T08:22:48;98135.34;;;10.68
61977;BMP280;45905;50.570;10.428;2023-03-20T08:25:16;98136.78;;;10.71
61977;BMP280;45905;50.570;10.428;2023-03-20T08:27:43;98127.44;;;10.71
61977;BMP280;45905;50.570;10.428;2023-03-20T08:30:11;98137.28;;;10.74
61977;BMP280;45905;50.570;10.428;2023-03-20T08:32:40;98134.59;;;10.76
61977;BMP280;45905;50.570;10.428;2023-03-20T08:35:08;98134.28;;;10.79
61977;BMP280;45905;50.570;10.428;2023-03-20T08:37:55;98139.06;;;10.82
61977;BMP280;45905;50.570;10.428;2023-03-20T08:40:23;98138.91;;;10.83
61977;BMP280;45905;50.570;10.428;2023-03-20T08:42:50;98142.53;;;10.81
61977;BMP280;45905;50.570;10.428;2023-03-20T08:45:18;98145.22;;;10.79
61977;BMP280;45905;50.570;10.428;2023-03-20T08:47:49;98148.41;;;10.81
61977;BMP280;45905;50.570;10.428;2023-03-20T08:50:16;98134.66;;;10.84
61977;BMP280;45905;50.570;10.428;2023-03-20T08:52:43;98151.59;;;10.83
61977;BMP280;45905;50.570;10.428;2023-03-20T08:55:14;98144.63;;;10.85
61977;BMP280;45905;50.570;10.428;2023-03-20T08:57:42;98147.00;;;10.86
61977;BMP280;45905;50.570;10.428;2023-03-20T09:00:13;98148.59;;;10.87
61977;BMP280;45905;50.570;10.428;2023-03-20T09:02:42;98136.72;;;10.88
61977;BMP280;45905;50.570;10.428;2023-03-20T09:05:10;98138.97;;;10.91
61977;BMP280;45905;50.570;10.428;2023-03-20T09:07:37;98143.56;;;10.95
61977;BMP280;45905;50.570;10.428;2023-03-20T09:10:05;98133.91;;;10.99
61977;BMP280;45905;50.570;10.428;2023-03-20T09:12:33;98139.16;;;11.05
61977;BMP280;45905;50.570;10.428;2023-03-20T09:15:02;98139.66;;;11.08
61977;BMP280;45905;50.570;10.428;2023-03-20T09:17:30;98143.66;;;11.11
61977;BMP280;45905;50.570;10.428;2023-03-20T09:19:57;98139.19;;;11.13
61977;BMP280;45905;50.570;10.428;2023-03-20T09:22:25;98145.56;;;11.17
61977;BMP280;45905;50.570;10.428;2023-03-20T09:24:52;98145.88;;;11.22
61977;BMP280;45905;50.570;10.428;2023-03-20T09:27:19;98142.09;;;11.25
61977;BMP280;45905;50.570;10.428;2023-03-20T09:29:46;98147.81;;;11.27
61977;BMP280;45905;50.570;10.428;2023-03-20T09:32:14;98162.75;;;11.30
61977;BMP280;45905;50.570;10.428;2023-03-20T09:34:41;98151.34;;;11.34
61977;BMP280;45905;50.570;10.428;2023-03-20T09:37:09;98155.50;;;11.43
61977;BMP280;45905;50.570;10.428;2023-03-20T09:39:36;98156.78;;;11.47
61977;BMP280;45905;50.570;10.428;2023-03-20T09:48:17;98164.44;;;11.63
61977;BMP280;45905;50.570;10.428;2023-03-20T09:53:44;98150.81;;;11.71
61977;BMP280;45905;50.570;10.428;2023-03-20T09:56:20;98153.38;;;11.79
61977;BMP280;45905;50.570;10.428;2023-03-20T09:59:02;98157.81;;;11.85
61977;BMP280;45905;50.570;10.428;2023-03-20T10:02:00;98150.69;;;11.88
61977;BMP280;45905;50.570;10.428;2023-03-20T10:04:32;98149.91;;;11.96
61977;BMP280;45905;50.570;10.428;2023-03-20T10:07:03;98162.44;;;12.05
61977;BMP280;45905;50.570;10.428;2023-03-20T10:09:31;98150.06;;;12.10
61977;BMP280;45905;50.570;10.428;2023-03-20T10:12:41;98153.09;;;12.13
61977;BMP280;45905;50.570;10.428;2023-03-20T10:18:28;98149.91;;;12.11
61977;BMP280;45905;50.570;10.428;2023-03-20T10:21:12;98145.31;;;12.15
61977;BMP280;45905;50.570;10.428;2023-03-20T10:26:20;98147.69;;;12.16
61977;BMP280;45905;50.570;10.428;2023-03-20T10:29:00;98141.63;;;12.17
61977;BMP280;45905;50.570;10.428;2023-03-20T10:31:42;98150.06;;;12.18
61977;BMP280;45905;50.570;10.428;2023-03-20T10:42:39;98143.72;;;12.14
61977;BMP280;45905;50.570;10.428;2023-03-20T10:47:47;98149.91;;;12.11
61977;BMP280;45905;50.570;10.428;2023-03-20T10:50:22;98142.78;;;12.07
61977;BMP280;45905;50.570;10.428;2023-03-20T10:52:55;98144.19;;;12.01
61977;BMP280;45905;50.570;10.428;2023-03-20T10:55:31;98144.19;;;12.01
61977;BMP280;45905;50.570;10.428;2023-03-20T10:58:23;98143.88;;;12.04
61977;BMP280;45905;50.570;10.428;2023-03-20T11:00:55;98134.66;;;12.03
61977;BMP280;45905;50.570;10.428;2023-03-20T11:03:27;98142.59;;;12.01
61977;BMP280;45905;50.570;10.428;2023-03-20T11:06:04;98141.34;;;11.97
61977;BMP280;45905;50.570;10.428;2023-03-20T11:08:47;98151.00;;;11.93
61977;BMP280;45905;50.570;10.428;2023-03-20T11:11:26;98148.94;;;11.97
61977;BMP280;45905;50.570;10.428;2023-03-20T11:13:54;98148.94;;;12.04
61977;BMP280;45905;50.570;10.428;2023-03-20T11:16:33;98146.56;;;12.03
61977;BMP280;45905;50.570;10.428;2023-03-20T11:19:07;98138.94;;;12.03
61977;BMP280;45905;50.570;10.428;2023-03-20T11:21:49;98135.63;;;12.10
61977;BMP280;45905;50.570;10.428;2023-03-20T11:24:41;98140.38;;;12.13
61977;BMP280;45905;50.570;10.428;2023-03-20T11:27:39;98143.88;;;12.12
61977;BMP280;45905;50.570;10.428;2023-03-20T11:30:15;98144.03;;;12.11
61977;BMP280;45905;50.570;10.428;2023-03-20T11:32:49;98145.94;;;12.09
61977;BMP280;45905;50.570;10.428;2023-03-20T11:38:15;98139.75;;;11.96
61977;BMP280;45905;50.570;10.428;2023-03-20T11:40:44;98144.50;;;11.91
61977;BMP280;45905;50.570;10.428;2023-03-20T11:43:20;98139.59;;;11.82
61977;BMP280;45905;50.570;10.428;2023-03-20T11:45:57;98135.47;;;11.81
61977;BMP280;45905;50.570;10.428;2023-03-20T11:48:39;98138.44;;;11.76
61977;BMP280;45905;50.570;10.428;2023-03-20T11:51:19;98142.28;;;11.72
61977;BMP280;45905;50.570;10.428;2023-03-20T11:56:26;98134.47;;;11.66
61977;BMP280;45905;50.570;10.428;2023-03-20T12:01:53;98132.72;;;11.74
61977;BMP280;45905;50.570;10.428;2023-03-20T12:04:32;98132.44;;;11.77
61977;BMP280;45905;50.570;10.428;2023-03-20T12:07:26;98129.59;;;11.80
61977;BMP280;45905;50.570;10.428;2023-03-20T12:12:58;98128.78;;;11.87
61977;BMP280;45905;50.570;10.428;2023-03-20T12:15:30;98126.72;;;11.91
61977;BMP280;45905;50.570;10.428;2023-03-20T12:18:08;98121.50;;;11.92
61977;BMP280;45905;50.570;10.428;2023-03-20T12:26:55;98113.25;;;11.90
61977;BMP280;45905;50.570;10.428;2023-03-20T12:33:06;98114.97;;;11.82
61977;BMP280;45905;50.570;10.428;2023-03-20T12:35:42;98119.75;;;11.77
61977;BMP280;45905;50.570;10.428;2023-03-20T12:38:23;98107.84;;;11.70
61977;BMP280;45905;50.570;10.428;2023-03-20T12:41:15;98111.19;;;11.70
61977;BMP280;45905;50.570;10.428;2023-03-20T12:47:06;98097.19;;;11.82
61977;BMP280;45905;50.570;10.428;2023-03-20T12:58:53;98086.44;;;11.88
61977;BMP280;45905;50.570;10.428;2023-03-20T13:07:21;98077.22;;;11.95
61977;BMP280;45905;50.570;10.428;2023-03-20T13:12:51;98072.94;;;11.95
61977;BMP280;45905;50.570;10.428;2023-03-20T13:16:20;98075.34;;;11.97
61977;BMP280;45905;50.570;10.428;2023-03-20T13:24:55;98070.09;;;11.90
61977;BMP280;45905;50.570;10.428;2023-03-20T13:27:41;98062.63;;;11.97
61977;BMP280;45905;50.570;10.428;2023-03-20T13:30:30;98062.63;;;12.04
61977;BMP280;45905;50.570;10.428;2023-03-20T13:39:13;98052.13;;;12.23
61977;BMP280;45905;50.570;10.428;2023-03-20T13:41:43;98046.72;;;12.26
61977;BMP280;45905;50.570;10.428;2023-03-20T13:44:17;98034.66;;;12.28
61977;BMP280;45905;50.570;10.428;2023-03-20T13:46:53;98048.91;;;12.37
61977;BMP280;45905;50.570;10.428;2023-03-20T13:49:37;98041.91;;;12.46
61977;BMP280;45905;50.570;10.428;2023-03-20T13:52:10;98031.28;;;12.51
61977;BMP280;45905;50.570;10.428;2023-03-20T14:03:35;98035.22;;;12.69
61977;BMP280;45905;50.570;10.428;2023-03-20T14:08:59;98029.44;;;12.75
61977;BMP280;45905;50.570;10.428;2023-03-20T14:11:36;98018.34;;;12.76
61977;BMP280;45905;50.570;10.428;2023-03-20T14:17:26;98011.81;;;12.73
61977;BMP280;45905;50.570;10.428;2023-03-20T14:19:55;98010.34;;;12.78
61977;BMP280;45905;50.570;10.428;2023-03-20T14:22:33;98009.25;;;12.81
61977;BMP280;45905;50.570;10.428;2023-03-20T14:25:15;98008.56;;;12.87
61977;BMP280;45905;50.570;10.428;2023-03-20T14:28:20;98004.28;;;12.87
61977;BMP280;45905;50.570;10.428;2023-03-20T14:30:49;98008.44;;;12.80
61977;BMP280;45905;50.570;10.428;2023-03-20T14:36:09;97998.84;;;12.68
61977;BMP280;45905;50.570;10.428;2023-03-20T14:38:51;98006.63;;;12.67
61977;BMP280;45905;50.570;10.428;2023-03-20T14:41:59;98011.69;;;12.67
61977;BMP280;45905;50.570;10.428;2023-03-20T14:48:10;97993.28;;;12.65
61977;BMP280;45905;50.570;10.428;2023-03-20T14:53:33;98003.56;;;12.71
61977;BMP280;45905;50.570;10.428;2023-03-20T15:01:14;97993.97;;;12.81
61977;BMP280;45905;50.570;10.428;2023-03-20T15:04:03;97991.59;;;12.79
61977;BMP280;45905;50.570;10.428;2023-03-20T15:06:44;97991.66;;;12.72
61977;BMP280;45905;50.570;10.428;2023-03-20T15:09:15;97989.09;;;12.72
61977;BMP280;45905;50.570;10.428;2023-03-20T15:11:42;97980.84;;;12.70
61977;BMP280;45905;50.570;10.428;2023-03-20T15:14:18;97987.41;;;12.64
61977;BMP280;45905;50.570;10.428;2023-03-20T15:16:46;97984.53;;;12.67
61977;BMP280;45905;50.570;10.428;2023-03-20T15:19:19;97992.59;;;12.71
61977;BMP280;45905;50.570;10.428;2023-03-20T15:21:48;97993.56;;;12.70
61977;BMP280;45905;50.570;10.428;2023-03-20T15:24:25;97992.31;;;12.66
61977;BMP280;45905;50.570;10.428;2023-03-20T15:27:00;97986.28;;;12.67
61977;BMP280;45905;50.570;10.428;2023-03-20T15:29:30;97987.88;;;12.68
61977;BMP280;45905;50.570;10.428;2023-03-20T15:32:01;97992.00;;;12.69
61977;BMP280;45905;50.570;10.428;2023-03-20T15:34:41;97993.88;;;12.75
61977;BMP280;45905;50.570;10.428;2023-03-20T15:37:15;97984.13;;;12.78
61977;BMP280;45905;50.570;10.428;2023-03-20T15:39:50;97983.03;;;12.80
61977;BMP280;45905;50.570;10.428;2023-03-20T15:42:23;97985.72;;;12.79
61977;BMP280;45905;50.570;10.428;2023-03-20T15:44:54;97977.16;;;12.80
61977;BMP280;45905;50.570;10.428;2023-03-20T15:47:23;97992.56;;;12.78
61977;BMP280;45905;50.570;10.428;2023-03-20T15:49:59;97985.56;;;12.80
61977;BMP280;45905;50.570;10.428;2023-03-20T15:52:46;97989.22;;;12.78
61977;BMP280;45905;50.570;10.428;2023-03-20T15:55:22;97983.88;;;12.73
61977;BMP280;45905;50.570;10.428;2023-03-20T15:57:51;97982.44;;;12.71
61977;BMP280;45905;50.570;10.428;2023-03-20T16:00:36;97979.28;;;12.69
61977;BMP280;45905;50.570;10.428;2023-03-20T16:03:15;97981.53;;;12.64
61977;BMP280;45905;50.570;10.428;2023-03-20T16:05:49;97980.72;;;12.63
61977;BMP280;45905;50.570;10.428;2023-03-20T16:08:32;97979.28;;;12.61
61977;BMP280;45905;50.570;10.428;2023-03-20T16:11:05;97982.59;;;12.61
61977;BMP280;45905;50.570;10.428;2023-03-20T16:13:42;97985.03;;;12.63
61977;BMP280;45905;50.570;10.428;2023-03-20T16:16:20;97983.41;;;12.62
61977;BMP280;45905;50.570;10.428;2023-03-20T16:18:48;97986.91;;;12.61
61977;BMP280;45905;50.570;10.428;2023-03-20T16:21:38;97989.16;;;12.56
61977;BMP280;45905;50.570;10.428;2023-03-20T16:24:18;97982.50;;;12.47
61977;BMP280;45905;50.570;10.428;2023-03-20T16:26:50;97988.56;;;12.46
61977;BMP280;45905;50.570;10.428;2023-03-20T16:29:22;97990.94;;;12.48
61977;BMP280;45905;50.570;10.428;2023-03-20T16:32:06;97990.13;;;12.47
61977;BMP280;45905;50.570;10.428;2023-03-20T16:34:38;97987.31;;;12.42
61977;BMP280;45905;50.570;10.428;2023-03-20T16:37:22;97986.03;;;12.39
61977;BMP280;45905;50.570;10.428;2023-03-20T16:43:15;97994.16;;;12.34
61977;BMP280;45905;50.570;10.428;2023-03-20T16:45:55;97990.69;;;12.27
61977;BMP280;45905;50.570;10.428;2023-03-20T16:48:26;97986.09;;;12.23
61977;BMP280;45905;50.570;10.428;2023-03-20T16:51:22;97989.59;;;12.22
61977;BMP280;45905;50.570;10.428;2023-03-20T16:53:59;97993.25;;;12.20
61977;BMP280;45905;50.570;10.428;2023-03-20T16:56:35;97996.88;;;12.17
61977;BMP280;45905;50.570;10.428;2023-03-20T16:59:16;97992.59;;;12.18
61977;BMP280;45905;50.570;10.428;2023-03-20T17:01:46;97999.78;;;12.14
61977;BMP280;45905;50.570;10.428;2023-03-20T17:04:28;97994.38;;;12.09
61977;BMP280;45905;50.570;10.428;2023-03-20T17:07:05;97997.25;;;12.06